createdAt,value
2018-06-15T00:00:04.757Z,991.18
2018-06-15T00:01:04.989Z,991.17
2018-06-15T00:02:05.220Z,991.17
2018-06-15T00:03:05.446Z,991.17
2018-06-15T00:04:05.681Z,991.17
2018-06-15T00:05:05.919Z,991.22
2018-06-15T00:06:06.146Z,991.20
2018-06-15T00:07:06.383Z,991.23
2018-06-15T00:08:06.604Z,991.26
2018-06-15T00:09:06.837Z,991.26
2018-06-15T00:10:07.072Z,991.30
2018-06-15T00:11:07.305Z,991.28
2018-06-15T00:12:07.540Z,991.26
2018-06-15T00:13:07.763Z,991.29
2018-06-15T00:14:07.994Z,991.32
2018-06-15T00:15:08.224Z,991.30
2018-06-15T00:16:08.461Z,991.25
2018-06-15T00:17:08.686Z,991.30
2018-06-15T00:18:08.916Z,991.29
2018-06-15T00:19:09.149Z,991.27
2018-06-15T00:20:09.376Z,991.27
2018-06-15T00:21:09.604Z,991.29
2018-06-15T00:22:09.834Z,991.28
2018-06-15T00:23:10.065Z,991.25
2018-06-15T00:24:10.290Z,991.30
2018-06-15T00:25:10.520Z,991.27
2018-06-15T00:26:10.750Z,991.28
2018-06-15T00:27:10.981Z,991.29
2018-06-15T00:28:11.210Z,991.35
2018-06-15T00:29:11.445Z,991.31
2018-06-15T00:30:11.668Z,991.27
2018-06-15T00:31:11.896Z,991.27
2018-06-15T00:32:12.129Z,991.26
2018-06-15T00:33:12.361Z,991.27
2018-06-15T00:34:12.591Z,991.29
2018-06-15T00:35:12.821Z,991.30
2018-06-15T00:36:13.046Z,991.29
2018-06-15T00:37:13.277Z,991.28
2018-06-15T00:38:13.505Z,991.26
2018-06-15T00:39:13.742Z,991.26
2018-06-15T00:40:13.965Z,991.24
2018-06-15T00:41:14.197Z,991.23
2018-06-15T00:42:14.426Z,991.22
2018-06-15T00:43:14.655Z,991.22
2018-06-15T00:44:14.886Z,991.23
2018-06-15T00:45:15.125Z,991.21
2018-06-15T00:46:15.345Z,991.21
2018-06-15T00:47:15.581Z,991.22
2018-06-15T00:48:15.806Z,991.23
2018-06-15T00:49:16.035Z,991.20
2018-06-15T00:50:16.264Z,991.20
2018-06-15T00:51:16.495Z,991.22
2018-06-15T00:52:16.721Z,991.24
2018-06-15T00:53:16.955Z,991.27
2018-06-15T00:54:17.184Z,991.23
2018-06-15T00:55:17.419Z,991.25
2018-06-15T00:56:17.649Z,991.25
2018-06-15T00:57:17.876Z,991.25
2018-06-15T00:58:18.107Z,991.22
2018-06-15T00:59:18.337Z,991.21
2018-06-15T01:00:18.613Z,991.26
2018-06-15T01:01:18.802Z,991.26
2018-06-15T01:02:19.034Z,991.27
2018-06-15T01:03:19.261Z,991.30
2018-06-15T01:04:19.489Z,991.28
2018-06-15T01:05:19.718Z,991.25
2018-06-15T01:06:19.957Z,991.22
2018-06-15T01:07:20.181Z,991.23
2018-06-15T01:08:20.414Z,991.20
2018-06-15T01:09:20.643Z,991.19
2018-06-15T01:10:20.877Z,991.17
2018-06-15T01:11:21.104Z,991.19
2018-06-15T01:12:21.343Z,991.17
2018-06-15T01:13:21.562Z,991.20
2018-06-15T01:14:21.794Z,991.20
2018-06-15T01:15:22.024Z,991.14
2018-06-15T01:16:22.258Z,991.15
2018-06-15T01:17:22.486Z,991.19
2018-06-15T01:18:22.715Z,991.16
2018-06-15T01:19:22.946Z,991.18
2018-06-15T01:20:23.173Z,991.21
2018-06-15T01:21:23.403Z,991.22
2018-06-15T01:22:23.638Z,991.19
2018-06-15T01:23:23.872Z,991.20
2018-06-15T01:24:24.092Z,991.17
2018-06-15T01:25:24.324Z,991.18
2018-06-15T01:26:24.549Z,991.14
2018-06-15T01:27:24.781Z,991.13
2018-06-15T01:28:25.013Z,991.14
2018-06-15T01:29:25.248Z,991.12
2018-06-15T01:30:25.473Z,991.11
2018-06-15T01:31:25.703Z,991.08
2018-06-15T01:32:25.931Z,991.08
2018-06-15T01:33:26.162Z,991.07
2018-06-15T01:34:26.395Z,991.07
2018-06-15T01:35:26.620Z,991.06
2018-06-15T01:36:26.851Z,991.05
2018-06-15T01:37:27.084Z,991.05
2018-06-15T01:38:27.310Z,991.02
2018-06-15T01:39:27.540Z,991.06
2018-06-15T01:40:27.770Z,991.06
2018-06-15T01:41:28.000Z,991.07
2018-06-15T01:42:28.229Z,991.09
2018-06-15T01:43:28.458Z,991.13
2018-06-15T01:44:28.690Z,991.13
2018-06-15T01:45:28.930Z,991.09
2018-06-15T01:46:29.149Z,991.14
2018-06-15T01:47:29.382Z,991.08
2018-06-15T01:48:29.610Z,991.07
2018-06-15T01:49:29.838Z,991.07
2018-06-15T01:50:30.070Z,991.07
2018-06-15T01:51:30.306Z,991.05
2018-06-15T01:52:30.528Z,991.06
2018-06-15T01:53:30.758Z,991.02
2018-06-15T01:54:30.988Z,991.03
2018-06-15T01:55:31.219Z,991.02
2018-06-15T01:56:31.450Z,991.05
2018-06-15T01:57:31.678Z,990.98
2018-06-15T01:58:31.918Z,991.02
2018-06-15T01:59:32.150Z,991.04
2018-06-15T02:00:32.377Z,991.04
2018-06-15T02:01:32.610Z,991.02
2018-06-15T02:02:32.841Z,991.03
2018-06-15T02:03:33.073Z,991.01
2018-06-15T02:04:33.301Z,991.03
2018-06-15T02:05:33.544Z,991.00
2018-06-15T02:06:33.773Z,990.97
2018-06-15T02:07:34.006Z,991.01
2018-06-15T02:08:34.279Z,991.01
2018-06-15T02:09:34.463Z,990.99
2018-06-15T02:10:34.691Z,991.01
2018-06-15T02:11:34.921Z,991.01
2018-06-15T02:12:35.151Z,991.04
2018-06-15T02:13:35.381Z,991.01
2018-06-15T02:14:35.612Z,991.00
2018-06-15T02:15:35.842Z,990.99
2018-06-15T02:16:36.073Z,990.97
2018-06-15T02:17:36.301Z,990.97
2018-06-15T02:18:36.531Z,990.94
2018-06-15T02:19:36.765Z,990.94
2018-06-15T02:20:36.995Z,990.91
2018-06-15T02:21:37.225Z,990.95
2018-06-15T02:22:37.452Z,990.96
2018-06-15T02:23:37.684Z,990.94
2018-06-15T02:24:37.913Z,990.96
2018-06-15T02:25:38.141Z,990.98
2018-06-15T02:26:38.371Z,990.95
2018-06-15T02:27:38.601Z,990.98
2018-06-15T02:28:38.828Z,990.96
2018-06-15T02:29:39.058Z,990.99
2018-06-15T02:30:39.288Z,991.00
2018-06-15T02:31:39.517Z,990.97
2018-06-15T02:32:39.748Z,990.97
2018-06-15T02:33:39.978Z,990.98
2018-06-15T02:34:40.216Z,990.97
2018-06-15T02:35:40.440Z,990.97
2018-06-15T02:36:40.669Z,990.98
2018-06-15T02:37:40.895Z,990.93
2018-06-15T02:38:41.127Z,990.93
2018-06-15T02:39:41.357Z,990.97
2018-06-15T02:40:41.586Z,990.97
2018-06-15T02:41:41.815Z,990.97
2018-06-15T02:42:42.044Z,990.96
2018-06-15T02:43:42.273Z,990.97
2018-06-15T02:44:42.504Z,990.98
2018-06-15T02:45:42.733Z,990.96
2018-06-15T02:46:42.963Z,990.96
2018-06-15T02:47:43.193Z,990.97
2018-06-15T02:48:43.423Z,990.96
2018-06-15T02:49:43.653Z,990.95
2018-06-15T02:50:43.883Z,990.97
2018-06-15T02:51:44.112Z,990.97
2018-06-15T02:52:44.346Z,990.97
2018-06-15T02:53:44.572Z,990.97
2018-06-15T02:54:44.797Z,990.98
2018-06-15T02:55:45.032Z,990.99
2018-06-15T02:56:45.260Z,990.98
2018-06-15T02:57:45.484Z,990.96
2018-06-15T02:58:45.722Z,990.94
2018-06-15T02:59:45.960Z,990.96
2018-06-15T03:00:46.189Z,990.98
2018-06-15T03:01:46.413Z,990.98
2018-06-15T03:02:46.641Z,990.98
2018-06-15T03:03:46.871Z,990.99
2018-06-15T03:04:47.100Z,991.01
2018-06-15T03:05:47.352Z,991.01
2018-06-15T03:06:47.559Z,991.06
2018-06-15T03:07:47.788Z,991.03
2018-06-15T03:08:48.032Z,991.04
2018-06-15T03:09:48.251Z,991.06
2018-06-15T03:10:48.487Z,991.05
2018-06-15T03:11:48.712Z,991.05
2018-06-15T03:12:48.944Z,991.10
2018-06-15T03:13:49.170Z,991.08
2018-06-15T03:14:49.402Z,991.08
2018-06-15T03:15:49.631Z,991.09
2018-06-15T03:16:49.861Z,991.09
2018-06-15T03:17:50.092Z,991.10
2018-06-15T03:18:50.323Z,991.11
2018-06-15T03:19:50.554Z,991.07
2018-06-15T03:20:50.783Z,991.09
2018-06-15T03:21:51.041Z,991.06
2018-06-15T03:22:51.241Z,991.11
2018-06-15T03:23:51.471Z,991.08
2018-06-15T03:24:51.700Z,991.08
2018-06-15T03:25:51.933Z,991.07
2018-06-15T03:26:52.166Z,991.07
2018-06-15T03:27:52.397Z,991.08
2018-06-15T03:28:52.627Z,991.10
2018-06-15T03:29:52.856Z,991.09
2018-06-15T03:30:53.090Z,991.09
2018-06-15T03:31:53.316Z,991.10
2018-06-15T03:32:53.544Z,991.07
2018-06-15T03:33:53.773Z,991.08
2018-06-15T03:34:54.004Z,991.08
2018-06-15T03:35:54.233Z,991.07
2018-06-15T03:36:54.464Z,991.10
2018-06-15T03:37:54.694Z,991.07
2018-06-15T03:38:54.925Z,991.09
2018-06-15T03:39:55.153Z,991.10
2018-06-15T03:40:55.385Z,991.11
2018-06-15T03:41:55.613Z,991.11
2018-06-15T03:42:55.846Z,991.10
2018-06-15T03:43:56.075Z,991.12
2018-06-15T03:44:56.305Z,991.10
2018-06-15T03:45:56.535Z,991.12
2018-06-15T03:46:56.771Z,991.10
2018-06-15T03:47:57.000Z,991.09
2018-06-15T03:48:57.232Z,991.06
2018-06-15T03:49:57.462Z,991.09
2018-06-15T03:50:57.689Z,991.06
2018-06-15T03:51:57.925Z,991.10
2018-06-15T03:52:58.154Z,991.10
2018-06-15T03:53:58.383Z,991.10
2018-06-15T03:54:58.611Z,991.11
2018-06-15T03:55:58.838Z,991.11
2018-06-15T03:56:59.068Z,991.11
2018-06-15T03:57:59.297Z,991.11
2018-06-15T03:58:59.529Z,991.16
2018-06-15T03:59:59.757Z,991.14
2018-06-15T04:00:59.985Z,991.13
2018-06-15T04:02:00.217Z,991.11
2018-06-15T04:03:00.445Z,991.15
2018-06-15T04:04:00.678Z,991.15
2018-06-15T04:05:00.912Z,991.17
2018-06-15T04:06:01.143Z,991.15
2018-06-15T04:07:01.411Z,991.18
2018-06-15T04:08:01.600Z,991.16
2018-06-15T04:09:01.828Z,991.18
2018-06-15T04:10:02.059Z,991.16
2018-06-15T04:11:02.287Z,991.19
2018-06-15T04:12:02.523Z,991.17
2018-06-15T04:13:02.770Z,991.17
2018-06-15T04:14:02.976Z,991.21
2018-06-15T04:15:03.207Z,991.24
2018-06-15T04:16:03.442Z,991.28
2018-06-15T04:17:03.671Z,991.29
2018-06-15T04:18:03.905Z,991.31
2018-06-15T04:19:04.133Z,991.31
2018-06-15T04:20:04.370Z,991.29
2018-06-15T04:21:04.599Z,991.28
2018-06-15T04:22:04.831Z,991.32
2018-06-15T04:23:05.068Z,991.33
2018-06-15T04:24:05.290Z,991.31
2018-06-15T04:25:05.518Z,991.32
2018-06-15T04:26:05.753Z,991.31
2018-06-15T04:27:05.984Z,991.34
2018-06-15T04:28:06.227Z,991.33
2018-06-15T04:29:06.444Z,991.33
2018-06-15T04:30:06.676Z,991.30
2018-06-15T04:31:06.904Z,991.32
2018-06-15T04:32:07.134Z,991.30
2018-06-15T04:33:07.363Z,991.31
2018-06-15T04:34:07.594Z,991.32
2018-06-15T04:35:07.821Z,991.29
2018-06-15T04:36:08.050Z,991.35
2018-06-15T04:37:08.293Z,991.32
2018-06-15T04:38:08.517Z,991.38
2018-06-15T04:39:08.746Z,991.38
2018-06-15T04:40:08.974Z,991.38
2018-06-15T04:41:09.199Z,991.36
2018-06-15T04:42:09.434Z,991.39
2018-06-15T04:43:09.661Z,991.40
2018-06-15T04:44:09.891Z,991.36
2018-06-15T04:45:10.123Z,991.37
2018-06-15T04:46:10.353Z,991.39
2018-06-15T04:47:10.579Z,991.37
2018-06-15T04:48:10.808Z,991.42
2018-06-15T04:49:11.037Z,991.36
2018-06-15T04:50:11.262Z,991.41
2018-06-15T04:51:11.495Z,991.38
2018-06-15T04:52:11.725Z,991.38
2018-06-15T04:53:11.960Z,991.40
2018-06-15T04:54:12.188Z,991.39
2018-06-15T04:55:12.419Z,991.39
2018-06-15T04:56:12.710Z,991.43
2018-06-15T04:57:12.880Z,991.41
2018-06-15T04:58:13.113Z,991.46
2018-06-15T04:59:13.345Z,991.40
2018-06-15T05:00:13.580Z,991.43
2018-06-15T05:01:13.813Z,991.44
2018-06-15T05:02:14.037Z,991.49
2018-06-15T05:03:14.272Z,991.50
2018-06-15T05:04:14.495Z,991.48
2018-06-15T05:05:14.730Z,991.47
2018-06-15T05:06:14.954Z,991.47
2018-06-15T05:07:15.185Z,991.49
2018-06-15T05:08:15.416Z,991.50
2018-06-15T05:09:15.656Z,991.50
2018-06-15T05:10:15.875Z,991.50
2018-06-15T05:11:16.112Z,991.49
2018-06-15T05:12:16.339Z,991.51
2018-06-15T05:13:16.572Z,991.51
2018-06-15T05:14:16.803Z,991.48
2018-06-15T05:15:17.032Z,991.48
2018-06-15T05:16:17.262Z,991.49
2018-06-15T05:17:17.540Z,991.50
2018-06-15T05:18:17.722Z,991.48
2018-06-15T05:19:17.953Z,991.52
2018-06-15T05:20:18.187Z,991.51
2018-06-15T05:21:18.418Z,991.49
2018-06-15T05:22:18.647Z,991.51
2018-06-15T05:23:18.873Z,991.50
2018-06-15T05:24:19.109Z,991.50
2018-06-15T05:25:19.340Z,991.56
2018-06-15T05:26:19.570Z,991.53
2018-06-15T05:27:19.803Z,991.52
2018-06-15T05:28:20.033Z,991.58
2018-06-15T05:29:20.265Z,991.53
2018-06-15T05:30:20.498Z,991.56
2018-06-15T05:31:20.731Z,991.56
2018-06-15T05:32:20.960Z,991.58
2018-06-15T05:33:21.189Z,991.57
2018-06-15T05:34:21.426Z,991.58
2018-06-15T05:35:21.694Z,991.58
2018-06-15T05:36:21.882Z,991.62
2018-06-15T05:37:22.114Z,991.62
2018-06-15T05:38:22.348Z,991.63
2018-06-15T05:39:22.573Z,991.58
2018-06-15T05:40:22.806Z,991.61
2018-06-15T05:41:23.041Z,991.59
2018-06-15T05:42:23.267Z,991.61
2018-06-15T05:43:23.502Z,991.60
2018-06-15T05:44:23.732Z,991.61
2018-06-15T05:45:23.962Z,991.61
2018-06-15T05:46:24.195Z,991.58
2018-06-15T05:47:24.431Z,991.58
2018-06-15T05:48:24.676Z,991.58
2018-06-15T05:49:24.900Z,991.59
2018-06-15T05:50:25.131Z,991.61
2018-06-15T05:51:25.360Z,991.60
2018-06-15T05:52:25.600Z,991.61
2018-06-15T05:53:25.831Z,991.62
2018-06-15T05:54:26.065Z,991.65
2018-06-15T05:55:26.294Z,991.63
2018-06-15T05:56:26.528Z,991.65
2018-06-15T05:57:26.762Z,991.65
2018-06-15T05:58:26.990Z,991.68
2018-06-15T05:59:27.219Z,991.68
2018-06-15T06:00:27.452Z,991.67
2018-06-15T06:01:27.690Z,991.68
2018-06-15T06:02:27.931Z,991.69
2018-06-15T06:03:28.161Z,991.72
2018-06-15T06:04:28.391Z,991.72
2018-06-15T06:05:28.624Z,991.73
2018-06-15T06:06:28.857Z,991.71
2018-06-15T06:07:29.093Z,991.73
2018-06-15T06:08:29.322Z,991.72
2018-06-15T06:09:29.552Z,991.73
2018-06-15T06:10:29.784Z,991.79
2018-06-15T06:11:30.019Z,991.79
2018-06-15T06:12:30.247Z,991.81
2018-06-15T06:13:30.479Z,991.80
2018-06-15T06:14:30.715Z,991.79
2018-06-15T06:15:30.938Z,991.81
2018-06-15T06:16:31.174Z,991.83
2018-06-15T06:17:31.408Z,991.85
2018-06-15T06:18:31.642Z,991.87
2018-06-15T06:19:31.874Z,991.86
2018-06-15T06:20:32.107Z,991.86
2018-06-15T06:21:32.341Z,991.85
2018-06-15T06:22:32.572Z,991.83
2018-06-15T06:23:32.805Z,991.87
2018-06-15T06:24:33.044Z,991.87
2018-06-15T06:25:33.274Z,991.88
2018-06-15T06:26:33.515Z,991.91
2018-06-15T06:27:33.737Z,991.93
2018-06-15T06:28:33.973Z,991.90
2018-06-15T06:29:34.207Z,991.94
2018-06-15T06:30:34.443Z,991.96
2018-06-15T06:31:34.676Z,991.93
2018-06-15T06:32:34.934Z,991.94
2018-06-15T06:33:35.140Z,991.97
2018-06-15T06:34:35.373Z,991.99
2018-06-15T06:35:35.611Z,991.99
2018-06-15T06:36:35.840Z,992.02
2018-06-15T06:37:36.074Z,992.03
2018-06-15T06:38:36.308Z,992.01
2018-06-15T06:39:36.542Z,992.03
2018-06-15T06:40:36.775Z,992.03
2018-06-15T06:41:37.011Z,992.05
2018-06-15T06:42:37.241Z,992.02
2018-06-15T06:43:37.475Z,992.01
2018-06-15T06:44:37.707Z,992.01
2018-06-15T06:45:37.940Z,992.02
2018-06-15T06:46:38.171Z,992.00
2018-06-15T06:47:38.405Z,992.02
2018-06-15T06:48:38.644Z,992.02
2018-06-15T06:49:38.881Z,992.07
2018-06-15T06:50:39.190Z,992.10
2018-06-15T06:51:39.347Z,992.09
2018-06-15T06:52:39.583Z,992.11
2018-06-15T06:53:39.816Z,992.12
2018-06-15T06:54:40.071Z,992.13
2018-06-15T06:55:40.280Z,992.16
2018-06-15T06:56:40.512Z,992.15
2018-06-15T06:57:40.748Z,992.19
2018-06-15T06:58:40.983Z,992.19
2018-06-15T06:59:41.209Z,992.17
2018-06-15T07:00:41.442Z,992.21
2018-06-15T07:01:41.675Z,992.20
2018-06-15T07:02:41.908Z,992.20
2018-06-15T07:03:42.144Z,992.20
2018-06-15T07:04:42.371Z,992.21
2018-06-15T07:05:42.607Z,992.23
2018-06-15T07:06:42.839Z,992.21
2018-06-15T07:07:43.070Z,992.20
2018-06-15T07:08:43.302Z,992.21
2018-06-15T07:09:43.533Z,992.21
2018-06-15T07:10:43.764Z,992.23
2018-06-15T07:11:43.999Z,992.25
2018-06-15T07:12:44.232Z,992.25
2018-06-15T07:13:44.466Z,992.26
2018-06-15T07:14:44.698Z,992.29
2018-06-15T07:15:44.931Z,992.29
2018-06-15T07:16:45.162Z,992.28
2018-06-15T07:17:45.395Z,992.30
2018-06-15T07:18:45.626Z,992.26
2018-06-15T07:19:45.859Z,992.28
2018-06-15T07:20:46.092Z,992.31
2018-06-15T07:21:46.321Z,992.34
2018-06-15T07:22:46.555Z,992.32
2018-06-15T07:23:46.787Z,992.36
2018-06-15T07:24:47.020Z,992.32
2018-06-15T07:25:47.261Z,992.38
2018-06-15T07:26:47.496Z,992.38
2018-06-15T07:27:47.728Z,992.39
2018-06-15T07:28:47.956Z,992.37
2018-06-15T07:29:48.195Z,992.43
2018-06-15T07:30:48.423Z,992.48
2018-06-15T07:31:48.658Z,992.45
2018-06-15T07:32:48.888Z,992.45
2018-06-15T07:33:49.121Z,992.45
2018-06-15T07:34:49.351Z,992.47
2018-06-15T07:35:49.584Z,992.48
2018-06-15T07:36:49.817Z,992.47
2018-06-15T07:37:50.050Z,992.51
2018-06-15T07:38:50.282Z,992.55
2018-06-15T07:39:50.516Z,992.55
2018-06-15T07:40:50.745Z,992.53
2018-06-15T07:41:50.977Z,992.52
2018-06-15T07:42:51.212Z,992.50
2018-06-15T07:43:51.445Z,992.52
2018-06-15T07:44:51.676Z,992.50
2018-06-15T07:45:51.912Z,992.53
2018-06-15T07:46:52.150Z,992.50
2018-06-15T07:47:52.378Z,992.48
2018-06-15T07:48:52.616Z,992.51
2018-06-15T07:49:52.846Z,992.52
2018-06-15T07:50:53.079Z,992.52
2018-06-15T07:51:53.311Z,992.51
2018-06-15T07:52:53.548Z,992.50
2018-06-15T07:53:53.782Z,992.48
2018-06-15T07:54:54.010Z,992.50
2018-06-15T07:55:54.241Z,992.49
2018-06-15T07:56:54.479Z,992.48
2018-06-15T07:57:54.709Z,992.51
2018-06-15T07:58:54.941Z,992.49
2018-06-15T07:59:55.177Z,992.47
2018-06-15T08:00:55.416Z,992.48
2018-06-15T08:01:55.648Z,992.51
2018-06-15T08:02:55.881Z,992.50
2018-06-15T08:03:56.115Z,992.52
2018-06-15T08:04:56.348Z,992.51
2018-06-15T08:05:56.582Z,992.52
2018-06-15T08:06:56.815Z,992.54
2018-06-15T08:07:57.047Z,992.53
2018-06-15T08:08:57.280Z,992.55
2018-06-15T08:09:57.516Z,992.57
2018-06-15T08:10:57.745Z,992.56
2018-06-15T08:11:57.978Z,992.57
2018-06-15T08:12:58.217Z,992.62
2018-06-15T08:13:58.457Z,992.61
2018-06-15T08:14:58.683Z,992.62
2018-06-15T08:15:58.923Z,992.66
2018-06-15T08:16:59.153Z,992.66
2018-06-15T08:17:59.391Z,992.66
2018-06-15T08:18:59.628Z,992.64
2018-06-15T08:19:59.856Z,992.65
2018-06-15T08:21:00.089Z,992.66
2018-06-15T08:22:00.322Z,992.67
2018-06-15T08:23:00.560Z,992.66
2018-06-15T08:24:00.789Z,992.70
2018-06-15T08:25:01.020Z,992.67
2018-06-15T08:26:01.252Z,992.73
2018-06-15T08:27:01.485Z,992.69
2018-06-15T08:28:01.723Z,992.71
2018-06-15T08:29:01.954Z,992.72
2018-06-15T08:30:02.190Z,992.73
2018-06-15T08:31:02.418Z,992.75
2018-06-15T08:32:02.654Z,992.70
2018-06-15T08:33:02.897Z,992.71
2018-06-15T08:34:03.116Z,992.70
2018-06-15T08:35:03.356Z,992.71
2018-06-15T08:36:03.588Z,992.72
2018-06-15T08:37:03.819Z,992.69
2018-06-15T08:38:04.052Z,992.73
2018-06-15T08:39:04.282Z,992.73
2018-06-15T08:40:04.509Z,992.69
2018-06-15T08:41:04.751Z,992.73
2018-06-15T08:42:04.984Z,992.71
2018-06-15T08:43:05.216Z,992.71
2018-06-15T08:44:05.449Z,992.73
2018-06-15T08:45:05.685Z,992.73
2018-06-15T08:46:05.910Z,992.68
2018-06-15T08:47:06.145Z,992.73
2018-06-15T08:48:06.377Z,992.67
2018-06-15T08:49:06.609Z,992.75
2018-06-15T08:50:06.845Z,992.71
2018-06-15T08:51:07.093Z,992.69
2018-06-15T08:52:07.321Z,992.73
2018-06-15T08:53:07.559Z,992.69
2018-06-15T08:54:07.788Z,992.71
2018-06-15T08:55:08.018Z,992.71
2018-06-15T08:56:08.253Z,992.74
2018-06-15T08:57:08.481Z,992.69
2018-06-15T08:58:08.718Z,992.73
2018-06-15T08:59:08.949Z,992.72
2018-06-15T09:00:09.180Z,992.69
2018-06-15T09:01:09.414Z,992.69
2018-06-15T09:02:09.646Z,992.70
2018-06-15T09:03:09.885Z,992.68
2018-06-15T09:04:10.117Z,992.69
2018-06-15T09:05:10.360Z,992.69
2018-06-15T09:06:10.585Z,992.68
2018-06-15T09:07:10.810Z,992.70
2018-06-15T09:08:11.047Z,992.70
2018-06-15T09:09:11.280Z,992.70
2018-06-15T09:10:11.516Z,992.70
2018-06-15T09:11:11.746Z,992.64
2018-06-15T09:12:11.980Z,992.67
2018-06-15T09:13:12.210Z,992.66
2018-06-15T09:14:12.444Z,992.68
2018-06-15T09:15:12.675Z,992.65
2018-06-15T09:16:12.908Z,992.65
2018-06-15T09:17:13.139Z,992.63
2018-06-15T09:18:13.403Z,992.65
2018-06-15T09:19:13.609Z,992.64
2018-06-15T09:20:13.841Z,992.59
2018-06-15T09:21:14.073Z,992.63
2018-06-15T09:22:14.310Z,992.66
2018-06-15T09:23:14.541Z,992.64
2018-06-15T09:24:14.773Z,992.66
2018-06-15T09:25:15.010Z,992.64
2018-06-15T09:26:15.238Z,992.60
2018-06-15T09:27:15.471Z,992.62
2018-06-15T09:28:15.703Z,992.61
2018-06-15T09:29:15.936Z,992.62
2018-06-15T09:30:16.169Z,992.62
2018-06-15T09:31:16.404Z,992.60
2018-06-15T09:32:16.639Z,992.59
2018-06-15T09:33:16.875Z,992.62
2018-06-15T09:34:17.116Z,992.59
2018-06-15T09:35:17.342Z,992.60
2018-06-15T09:36:17.575Z,992.59
2018-06-15T09:37:17.804Z,992.61
2018-06-15T09:38:18.041Z,992.61
2018-06-15T09:39:18.275Z,992.58
2018-06-15T09:40:18.508Z,992.60
2018-06-15T09:41:18.741Z,992.59
2018-06-15T09:42:18.975Z,992.62
2018-06-15T09:43:19.206Z,992.63
2018-06-15T09:44:19.438Z,992.63
2018-06-15T09:45:19.672Z,992.62
2018-06-15T09:46:19.926Z,992.63
2018-06-15T09:47:20.140Z,992.62
2018-06-15T09:48:20.377Z,992.59
2018-06-15T09:49:20.603Z,992.58
2018-06-15T09:50:20.837Z,992.60
2018-06-15T09:51:21.072Z,992.60
2018-06-15T09:52:21.305Z,992.66
2018-06-15T09:53:21.547Z,992.63
2018-06-15T09:54:21.773Z,992.69
2018-06-15T09:55:22.008Z,992.65
2018-06-15T09:56:22.237Z,992.68
2018-06-15T09:57:22.471Z,992.67
2018-06-15T09:58:22.705Z,992.66
2018-06-15T09:59:22.939Z,992.65
2018-06-15T10:00:23.178Z,992.69
2018-06-15T10:01:23.414Z,992.71
2018-06-15T10:02:23.643Z,992.68
2018-06-15T10:03:23.876Z,992.70
2018-06-15T10:04:24.110Z,992.71
2018-06-15T10:05:24.357Z,992.68
2018-06-15T10:06:24.592Z,992.68
2018-06-15T10:07:24.824Z,992.69
2018-06-15T10:08:25.058Z,992.66
2018-06-15T10:09:25.290Z,992.68
2018-06-15T10:10:25.524Z,992.68
2018-06-15T10:11:25.760Z,992.69
2018-06-15T10:12:25.998Z,992.69
2018-06-15T10:13:26.229Z,992.69
2018-06-15T10:14:26.464Z,992.68
2018-06-15T10:15:26.701Z,992.69
2018-06-15T10:16:26.934Z,992.71
2018-06-15T10:17:27.169Z,992.74
2018-06-15T10:18:27.405Z,992.70
2018-06-15T10:19:27.642Z,992.69
2018-06-15T10:20:27.870Z,992.74
2018-06-15T10:21:28.111Z,992.69
2018-06-15T10:22:28.349Z,992.70
2018-06-15T10:23:28.593Z,992.69
2018-06-15T10:24:28.817Z,992.71
2018-06-15T10:25:29.051Z,992.69
2018-06-15T10:26:29.287Z,992.73
2018-06-15T10:27:29.523Z,992.73
2018-06-15T10:28:29.759Z,992.76
2018-06-15T10:29:29.996Z,992.73
2018-06-15T10:30:30.234Z,992.69
2018-06-15T10:31:30.466Z,992.69
2018-06-15T10:32:30.701Z,992.67
2018-06-15T10:33:30.938Z,992.70
2018-06-15T10:34:31.174Z,992.65
2018-06-15T10:35:31.407Z,992.70
2018-06-15T10:36:31.645Z,992.69
2018-06-15T10:37:31.881Z,992.70
2018-06-15T10:38:32.118Z,992.69
2018-06-15T10:39:32.391Z,992.65
2018-06-15T10:40:32.590Z,992.65
2018-06-15T10:41:32.824Z,992.67
2018-06-15T10:42:33.059Z,992.63
2018-06-15T10:43:33.300Z,992.65
2018-06-15T10:44:33.533Z,992.57
2018-06-15T10:45:33.770Z,992.54
2018-06-15T10:46:34.005Z,992.54
2018-06-15T10:47:34.242Z,992.53
2018-06-15T10:48:34.486Z,992.52
2018-06-15T10:49:34.714Z,992.48
2018-06-15T10:50:34.956Z,992.50
2018-06-15T10:51:35.191Z,992.47
2018-06-15T10:52:35.426Z,992.49
2018-06-15T10:53:35.660Z,992.50
2018-06-15T10:54:35.899Z,992.51
2018-06-15T10:55:36.138Z,992.49
2018-06-15T10:56:36.373Z,992.47
2018-06-15T10:57:36.614Z,992.46
2018-06-15T10:58:36.849Z,992.48
2018-06-15T10:59:37.083Z,992.47
2018-06-15T11:00:37.321Z,992.48
2018-06-15T11:01:37.555Z,992.48
2018-06-15T11:02:37.793Z,992.47
2018-06-15T11:03:38.030Z,992.45
2018-06-15T11:04:38.267Z,992.45
2018-06-15T11:05:38.501Z,992.43
2018-06-15T11:06:38.742Z,992.45
2018-06-15T11:07:38.972Z,992.47
2018-06-15T11:08:39.209Z,992.45
2018-06-15T11:09:39.449Z,992.44
2018-06-15T11:10:39.682Z,992.44
2018-06-15T11:11:39.918Z,992.41
2018-06-15T11:12:40.155Z,992.42
2018-06-15T11:13:40.395Z,992.37
2018-06-15T11:14:40.628Z,992.36
2018-06-15T11:15:40.864Z,992.40
2018-06-15T11:16:41.101Z,992.38
2018-06-15T11:17:41.336Z,992.39
2018-06-15T11:18:41.575Z,992.38
2018-06-15T11:19:41.815Z,992.39
2018-06-15T11:20:42.056Z,992.40
2018-06-15T11:21:42.289Z,992.41
2018-06-15T11:22:42.526Z,992.42
2018-06-15T11:23:42.763Z,992.46
2018-06-15T11:24:42.996Z,992.42
2018-06-15T11:25:43.234Z,992.39
2018-06-15T11:26:43.467Z,992.41
2018-06-15T11:27:43.709Z,992.39
2018-06-15T11:28:43.944Z,992.41
2018-06-15T11:29:44.181Z,992.40
2018-06-15T11:30:44.420Z,992.38
2018-06-15T11:31:44.656Z,992.39
2018-06-15T11:32:44.892Z,992.38
2018-06-15T11:33:45.127Z,992.35
2018-06-15T11:34:45.368Z,992.34
2018-06-15T11:35:45.601Z,992.36
2018-06-15T11:36:45.837Z,992.36
2018-06-15T11:37:46.077Z,992.35
2018-06-15T11:38:46.312Z,992.33
2018-06-15T11:39:46.548Z,992.36
2018-06-15T11:40:46.787Z,992.35
2018-06-15T11:41:47.023Z,992.32
2018-06-15T11:42:47.286Z,992.31
2018-06-15T11:43:47.561Z,992.38
2018-06-15T11:44:47.756Z,992.34
2018-06-15T11:45:47.998Z,992.31
2018-06-15T11:46:48.233Z,992.32
2018-06-15T11:47:48.469Z,992.31
2018-06-15T11:48:48.705Z,992.31
2018-06-15T11:49:48.939Z,992.32
2018-06-15T11:50:49.178Z,992.29
2018-06-15T11:51:49.409Z,992.32
2018-06-15T11:52:49.653Z,992.29
2018-06-15T11:53:49.894Z,992.35
2018-06-15T11:54:50.132Z,992.32
2018-06-15T11:55:50.366Z,992.32
2018-06-15T11:56:50.601Z,992.34
2018-06-15T11:57:50.837Z,992.28
2018-06-15T11:58:51.077Z,992.31
2018-06-15T11:59:51.308Z,992.29
2018-06-15T12:00:51.547Z,992.27
2018-06-15T12:01:51.877Z,992.30
2018-06-15T12:02:52.022Z,992.28
2018-06-15T12:03:52.260Z,992.25
2018-06-15T12:04:52.497Z,992.29
2018-06-15T12:05:52.731Z,992.24
2018-06-15T12:06:52.969Z,992.25
2018-06-15T12:07:53.244Z,992.27
2018-06-15T12:08:53.445Z,992.26
2018-06-15T12:09:53.678Z,992.26
2018-06-15T12:10:53.945Z,992.26
2018-06-15T12:11:54.195Z,992.29
2018-06-15T12:12:54.435Z,992.24
2018-06-15T12:13:54.679Z,992.25
2018-06-15T12:14:54.907Z,992.23
2018-06-15T12:15:55.142Z,992.21
2018-06-15T12:16:55.377Z,992.27
2018-06-15T12:17:55.619Z,992.23
2018-06-15T12:18:55.863Z,992.26
2018-06-15T12:19:56.099Z,992.25
2018-06-15T12:20:56.338Z,992.20
2018-06-15T12:21:56.573Z,992.25
2018-06-15T12:22:56.811Z,992.25
2018-06-15T12:23:57.084Z,992.25
2018-06-15T12:24:57.287Z,992.26
2018-06-15T12:25:57.522Z,992.26
2018-06-15T12:26:57.757Z,992.22
2018-06-15T12:27:57.996Z,992.21
2018-06-15T12:28:58.245Z,992.23
2018-06-15T12:29:58.479Z,992.22
2018-06-15T12:30:58.714Z,992.22